Time;durP1;ratioP1;P1;durP2;ratioP2;P2;SDS_P1;SDS_P2;PMS_P1;PMS_P2;Temp;Humidity;BMP_temperature;BMP_pressure;BME280_temperature;BME280_humidity;BME280_pressure;Samples;Min_cycle;Max_cycle;Signal;HPM_P1;HPM_P2
2023/03/15 00:04:05;;;;;;;2.45;0.73;;;;;;;;;;10559124;28;20513;-80
2023/03/15 00:09:08;;;;;;;1.92;0.75;;;;;;;;;;10564681;28;20044;-79
2023/03/15 00:14:15;;;;;;;1.35;0.60;;;;;;;;;;10557485;28;20123;-80
2023/03/15 00:19:20;;;;;;;1.08;0.63;;;;;;;;;;10556020;28;20051;-79
2023/03/15 00:24:27;;;;;;;1.63;0.90;;;;;;;;;;10557918;28;20036;-79
2023/03/15 00:29:31;;;;;;;0.90;0.55;;;;;;;;;;10554957;28;20046;-78
2023/03/15 00:34:36;;;;;;;3.33;0.90;;;;;;;;;;10564832;28;20032;-81
2023/03/15 00:39:44;;;;;;;2.65;1.20;;;;;;;;;;10566725;28;20427;-81
2023/03/15 00:44:48;;;;;;;0.30;0.30;;;;;;;;;;10562936;28;20714;-81
2023/03/15 00:49:53;;;;;;;1.15;1.02;;;;;;;;;;10567560;28;20561;-81
2023/03/15 00:54:56;;;;;;;;;;;;;;;;;;10554908;28;20475;-81
2023/03/15 01:00:05;;;;;;;0.80;0.43;;;;;;;;;;10556473;28;20399;-82
2023/03/15 01:05:14;;;;;;;0.53;0.40;;;;;;;;;;10576579;28;20059;-82
2023/03/15 01:10:17;;;;;;;0.20;0.20;;;;;;;;;;10566535;28;20537;-80
2023/03/15 01:15:21;;;;;;;1.08;0.32;;;;;;;;;;10571651;28;20047;-82
2023/03/15 01:20:29;;;;;;;0.30;0.30;;;;;;;;;;10586867;27;20491;-82
2023/03/15 01:25:32;;;;;;;0.47;0.40;;;;;;;;;;10610379;27;20054;-84
2023/03/15 01:30:37;;;;;;;0.53;0.40;;;;;;;;;;10620272;27;20028;-84
2023/03/15 01:41:23;;;;;;;1.27;0.50;;;;;;;;;;10587589;27;20074;-84
2023/03/15 01:46:32;;;;;;;0.57;0.57;;;;;;;;;;10586774;27;20048;-85
2023/03/15 02:02:26;;;;;;;0.83;0.60;;;;;;;;;;10583861;27;20234;-85
2023/03/15 02:07:48;;;;;;;1.47;0.53;;;;;;;;;;10591932;27;20055;-84
2023/03/15 02:12:57;;;;;;;0.47;0.47;;;;;;;;;;10576435;28;20122;-84
2023/03/15 02:18:01;;;;;;;0.63;0.63;;;;;;;;;;10576784;28;20150;-81
2023/03/15 02:23:13;;;;;;;0.77;0.70;;;;;;;;;;10551847;28;20056;-82
2023/03/15 02:28:23;;;;;;;1.17;0.70;;;;;;;;;;10566284;27;20035;-82
2023/03/15 02:33:30;;;;;;;1.20;0.60;;;;;;;;;;10583223;27;20055;-80
2023/03/15 02:38:34;;;;;;;1.43;0.90;;;;;;;;;;10583290;27;20023;-80
2023/03/15 02:43:41;;;;;;;1.03;0.80;;;;;;;;;;10582907;27;20036;-81
2023/03/15 02:48:46;;;;;;;1.40;1.20;;;;;;;;;;10581478;27;20035;-82
2023/03/15 02:53:49;;;;;;;1.27;0.90;;;;;;;;;;10583244;27;20050;-82
2023/03/15 02:58:56;;;;;;;1.50;1.10;;;;;;;;;;10588130;28;20040;-82
2023/03/15 03:03:59;;;;;;;0.87;0.80;;;;;;;;;;10604135;27;20082;-82
2023/03/15 03:09:03;;;;;;;1.03;0.50;;;;;;;;;;10606771;27;20031;-82
2023/03/15 03:14:08;;;;;;;1.58;0.90;;;;;;;;;;10599008;27;20388;-82
2023/03/15 03:19:15;;;;;;;0.80;0.50;;;;;;;;;;10611280;27;20036;-82
2023/03/15 03:24:20;;;;;;;1.90;1.10;;;;;;;;;;10577830;27;21174;-82
2023/03/15 03:29:35;;;;;;;2.03;0.53;;;;;;;;;;10578826;27;20094;-82
2023/03/15 03:34:47;;;;;;;2.47;1.03;;;;;;;;;;10571105;27;20031;-81
2023/03/15 03:39:51;;;;;;;1.93;1.00;;;;;;;;;;10574089;27;20078;-80
2023/03/15 03:44:56;;;;;;;4.57;1.20;;;;;;;;;;10552521;27;20035;-80
2023/03/15 03:50:00;;;;;;;2.60;1.00;;;;;;;;;;10561768;27;20039;-82
2023/03/15 03:55:05;;;;;;;1.65;0.85;;;;;;;;;;10572664;27;20211;-82
2023/03/15 04:00:13;;;;;;;1.10;0.55;;;;;;;;;;10567867;28;20476;-81
2023/03/15 04:05:17;;;;;;;1.63;1.00;;;;;;;;;;10574469;27;20103;-80
2023/03/15 04:10:28;;;;;;;0.87;0.70;;;;;;;;;;10578155;28;20058;-82
2023/03/15 04:15:48;;;;;;;1.40;0.93;;;;;;;;;;10590400;28;20060;-81
2023/03/15 04:21:09;;;;;;;1.60;1.00;;;;;;;;;;10579013;28;20040;-82
2023/03/15 04:26:25;;;;;;;2.30;1.17;;;;;;;;;;10574244;28;20044;-82
2023/03/15 04:31:36;;;;;;;0.67;0.43;;;;;;;;;;10584129;28;20032;-82
2023/03/15 04:36:41;;;;;;;1.43;0.97;;;;;;;;;;10576280;28;20788;-81
2023/03/15 04:41:44;;;;;;;1.15;0.63;;;;;;;;;;10566419;28;20054;-81
2023/03/15 04:46:51;;;;;;;2.43;1.17;;;;;;;;;;10576290;28;20027;-81
2023/03/15 04:51:54;;;;;;;3.10;1.40;;;;;;;;;;10577024;28;20062;-81
2023/03/15 04:56:58;;;;;;;3.87;1.10;;;;;;;;;;10572210;27;20454;-80
2023/03/15 05:02:04;;;;;;;6.75;1.35;;;;;;;;;;10568181;28;20048;-80
2023/03/15 05:07:08;;;;;;;1.80;1.00;;;;;;;;;;10573987;28;20023;-80
2023/03/15 05:12:11;;;;;;;1.45;1.17;;;;;;;;;;10570460;28;20055;-80
2023/03/15 05:17:22;;;;;;;3.97;1.23;;;;;;;;;;10569045;28;20115;-81
2023/03/15 05:22:30;;;;;;;1.47;0.80;;;;;;;;;;10570762;28;20032;-80
2023/03/15 05:27:34;;;;;;;1.70;0.77;;;;;;;;;;10564605;28;20054;-81
2023/03/15 05:32:43;;;;;;;0.83;0.70;;;;;;;;;;10573296;28;20073;-80
2023/03/15 05:37:48;;;;;;;1.70;0.87;;;;;;;;;;10563063;28;20059;-82
2023/03/15 05:42:51;;;;;;;1.80;1.07;;;;;;;;;;10562325;28;20047;-80
2023/03/15 05:47:59;;;;;;;4.27;1.70;;;;;;;;;;10571047;27;20058;-81
2023/03/15 05:53:02;;;;;;;2.67;1.27;;;;;;;;;;10561037;28;20043;-80
2023/03/15 05:58:06;;;;;;;1.70;0.75;;;;;;;;;;10569458;28;20023;-81
2023/03/15 06:03:11;;;;;;;1.57;0.63;;;;;;;;;;10568347;28;20236;-81
2023/03/15 06:08:14;;;;;;;5.50;1.87;;;;;;;;;;10565471;28;20059;-81
2023/03/15 06:13:18;;;;;;;1.50;0.88;;;;;;;;;;10562831;28;20048;-77
2023/03/15 06:18:24;;;;;;;2.77;1.17;;;;;;;;;;10563706;28;20032;-77
2023/03/15 06:23:28;;;;;;;2.33;0.70;;;;;;;;;;10569242;28;20084;-80
2023/03/15 06:28:31;;;;;;;2.00;0.67;;;;;;;;;;10557592;28;20087;-80
2023/03/15 06:33:41;;;;;;;2.10;1.03;;;;;;;;;;10570127;27;20047;-79
2023/03/15 06:38:46;;;;;;;2.67;1.37;;;;;;;;;;10558112;27;20055;-80
2023/03/15 06:43:50;;;;;;;5.50;1.57;;;;;;;;;;10565874;28;20040;-79
2023/03/15 06:48:55;;;;;;;1.45;1.15;;;;;;;;;;10558172;28;20039;-80
2023/03/15 06:54:00;;;;;;;2.63;1.42;;;;;;;;;;10561958;28;20097;-80
2023/03/15 06:59:05;;;;;;;5.78;1.98;;;;;;;;;;10562686;28;20510;-79
2023/03/15 07:04:11;;;;;;;4.68;2.40;;;;;;;;;;10560081;28;20515;-79
2023/03/15 07:09:14;;;;;;;5.43;2.90;;;;;;;;;;10551880;28;20028;-79
2023/03/15 07:14:18;;;;;;;7.22;2.97;;;;;;;;;;10558969;28;20035;-80
2023/03/15 07:19:21;;;;;;;;;;;;;;;;;;10567099;27;20092;-79
2023/03/15 07:24:27;;;;;;;6.90;2.95;;;;;;;;;;10560601;28;20010;-79
2023/03/15 07:29:31;;;;;;;5.47;2.80;;;;;;;;;;10554289;28;20131;-80
2023/03/15 07:34:34;;;;;;;9.77;2.85;;;;;;;;;;10560657;28;20122;-79
2023/03/15 07:39:40;;;;;;;4.85;3.05;;;;;;;;;;10558589;27;20040;-79
2023/03/15 07:44:44;;;;;;;6.53;2.78;;;;;;;;;;10565028;27;20079;-79
2023/03/15 07:49:47;;;;;;;5.47;3.20;;;;;;;;;;10558445;28;20027;-78
2023/03/15 08:00:13;;;;;;;4.85;3.33;;;;;;;;;;10568042;27;20371;-81
2023/03/15 08:05:19;;;;;;;9.63;4.15;;;;;;;;;;10563374;28;20143;-80
2023/03/15 08:10:24;;;;;;;6.03;3.50;;;;;;;;;;10563540;28;20031;-80
2023/03/15 08:15:27;;;;;;;7.43;4.05;;;;;;;;;;10583298;28;20044;-81
2023/03/15 08:20:32;;;;;;;6.03;2.92;;;;;;;;;;10595330;28;20032;-82
2023/03/15 08:25:39;;;;;;;3.97;2.88;;;;;;;;;;10609894;28;20051;-81
2023/03/15 08:30:44;;;;;;;7.32;3.63;;;;;;;;;;10615074;27;20432;-82
2023/03/15 08:35:53;;;;;;;6.35;3.00;;;;;;;;;;10625854;27;20027;-81
2023/03/15 08:40:59;;;;;;;5.82;3.17;;;;;;;;;;10587821;27;20042;-81
2023/03/15 08:46:03;;;;;;;8.13;4.00;;;;;;;;;;10564175;28;20126;-82
2023/03/15 08:51:08;;;;;;;6.30;2.42;;;;;;;;;;10566101;28;20140;-82
2023/03/15 08:56:13;;;;;;;6.50;3.67;;;;;;;;;;10570987;28;20105;-82
2023/03/15 09:01:18;;;;;;;5.10;2.33;;;;;;;;;;10573848;28;20048;-81
2023/03/15 09:06:22;;;;;;;4.95;2.10;;;;;;;;;;10570247;28;20077;-82
2023/03/15 09:11:27;;;;;;;8.05;3.35;;;;;;;;;;10567255;28;20032;-81
2023/03/15 09:16:30;;;;;;;5.07;2.58;;;;;;;;;;10567293;28;20134;-81
2023/03/15 09:21:34;;;;;;;5.72;3.50;;;;;;;;;;10565646;28;20035;-82
2023/03/15 09:26:40;;;;;;;7.53;3.70;;;;;;;;;;10568840;28;20036;-82
2023/03/15 09:31:43;;;;;;;7.22;3.88;;;;;;;;;;10574467;28;20130;-81
2023/03/15 09:36:52;;;;;;;8.07;3.30;;;;;;;;;;10569291;28;20043;-82
2023/03/15 09:42:00;;;;;;;7.60;3.83;;;;;;;;;;10567769;28;20073;-84
2023/03/15 09:47:15;;;;;;;5.47;3.20;;;;;;;;;;10597577;27;20044;-90
2023/03/15 09:52:31;;;;;;;5.57;2.88;;;;;;;;;;10601146;28;20481;-87
2023/03/15 09:57:34;;;;;;;;;;;;;;;;;;10579026;28;20061;-87
2023/03/15 10:02:46;;;;;;;5.97;4.00;;;;;;;;;;10589904;28;19947;-90
2023/03/15 10:08:01;;;;;;;;;;;;;;;;;;10581882;28;20032;-88
2023/03/15 10:13:21;;;;;;;3.65;2.58;;;;;;;;;;10577140;28;19985;-89
2023/03/15 10:19:03;;;;;;;5.40;2.13;;;;;;;;;;10583114;27;20083;-83
2023/03/15 10:24:21;;;;;;;4.50;2.10;;;;;;;;;;10570679;28;20040;-85
2023/03/15 10:29:27;;;;;;;3.75;1.80;;;;;;;;;;10574601;28;20039;-83
2023/03/15 10:34:35;;;;;;;5.57;2.10;;;;;;;;;;10577246;28;20039;-84
2023/03/15 10:39:38;;;;;;;4.32;2.55;;;;;;;;;;10566370;28;20047;-85
2023/03/15 10:44:51;;;;;;;2.75;2.50;;;;;;;;;;10570794;28;20238;-85
2023/03/15 10:50:01;;;;;;;5.15;1.88;;;;;;;;;;10568642;28;20040;-84
2023/03/15 10:55:06;;;;;;;6.15;2.40;;;;;;;;;;10563293;28;20039;-84
2023/03/15 11:00:24;;;;;;;6.30;1.80;;;;;;;;;;10557990;28;20157;-85
2023/03/15 11:05:31;;;;;;;3.17;2.22;;;;;;;;;;10571035;28;20105;-84
2023/03/15 11:10:36;;;;;;;2.47;1.00;;;;;;;;;;10568242;28;20032;-86
2023/03/15 11:15:42;;;;;;;3.30;1.90;;;;;;;;;;10560553;28;20345;-82
2023/03/15 11:20:48;;;;;;;4.10;1.90;;;;;;;;;;10562296;28;21271;-85
2023/03/15 11:31:45;;;;;;;2.25;1.38;;;;;;;;;;10528910;28;20588;-85
2023/03/15 11:36:55;;;;;;;3.45;1.80;;;;;;;;;;10567438;28;20048;-84
2023/03/15 11:42:14;;;;;;;2.65;1.70;;;;;;;;;;10563418;27;20157;-85
2023/03/15 11:47:24;;;;;;;3.72;1.75;;;;;;;;;;10558367;28;20043;-86
2023/03/15 11:52:35;;;;;;;3.38;1.70;;;;;;;;;;10571172;27;20106;-85
2023/03/15 11:57:42;;;;;;;3.92;1.90;;;;;;;;;;10562899;27;20166;-86
2023/03/15 12:02:51;;;;;;;1.55;1.42;;;;;;;;;;10565367;28;20439;-86
2023/03/15 12:08:15;;;;;;;6.18;2.03;;;;;;;;;;10558895;28;20036;-87
2023/03/15 12:13:48;;;;;;;2.55;1.80;;;;;;;;;;10559912;28;20059;-86
2023/03/15 12:18:58;;;;;;;4.10;1.70;;;;;;;;;;10568400;28;20027;-85
2023/03/15 12:24:19;;;;;;;2.33;1.27;;;;;;;;;;10556086;28;20044;-85
2023/03/15 12:29:43;;;;;;;2.53;1.58;;;;;;;;;;10565421;28;20159;-87
2023/03/15 12:34:53;;;;;;;2.97;1.60;;;;;;;;;;10560904;28;20113;-85
2023/03/15 12:40:02;;;;;;;2.08;1.60;;;;;;;;;;10560498;28;20040;-85
2023/03/15 12:50:57;;;;;;;1.92;1.00;;;;;;;;;;10563407;28;20046;-86
2023/03/15 12:56:23;;;;;;;1.80;1.50;;;;;;;;;;10563727;28;20096;-84
2023/03/15 13:01:32;;;;;;;1.77;0.88;;;;;;;;;;10558342;28;20051;-84
2023/03/15 13:06:45;;;;;;;2.72;1.40;;;;;;;;;;10553711;28;20071;-84
2023/03/15 13:11:55;;;;;;;1.70;0.88;;;;;;;;;;10559194;28;20123;-85
2023/03/15 13:17:07;;;;;;;3.22;0.90;;;;;;;;;;10563346;27;20055;-85
2023/03/15 13:22:20;;;;;;;0.85;0.45;;;;;;;;;;10585223;27;20027;-85
2023/03/15 13:27:46;;;;;;;3.22;0.98;;;;;;;;;;10600415;27;20070;-84
2023/03/15 13:33:02;;;;;;;0.30;0.30;;;;;;;;;;10597602;27;20063;-83
2023/03/15 13:38:26;;;;;;;3.42;1.10;;;;;;;;;;10602138;28;20043;-85
2023/03/15 13:43:34;;;;;;;1.50;0.80;;;;;;;;;;10575218;27;20408;-85
2023/03/15 13:48:40;;;;;;;1.42;0.45;;;;;;;;;;10609236;27;20468;-85
2023/03/15 13:53:48;;;;;;;3.25;0.55;;;;;;;;;;10557358;28;20039;-85
2023/03/15 13:58:54;;;;;;;1.27;0.60;;;;;;;;;;10562705;27;20328;-85
2023/03/15 14:03:59;;;;;;;2.38;0.70;;;;;;;;;;10569059;27;20497;-84
2023/03/15 14:09:11;;;;;;;1.17;0.65;;;;;;;;;;10568681;27;20081;-85
2023/03/15 14:14:30;;;;;;;1.93;0.90;;;;;;;;;;10565428;28;20506;-84
2023/03/15 14:19:35;;;;;;;1.17;0.50;;;;;;;;;;10566856;27;20035;-85
2023/03/15 14:24:47;;;;;;;3.50;0.63;;;;;;;;;;10548941;27;20046;-85
2023/03/15 14:29:54;;;;;;;1.20;0.70;;;;;;;;;;10567090;27;20048;-85
2023/03/15 14:35:04;;;;;;;1.45;0.70;;;;;;;;;;10572472;27;20036;-84
2023/03/15 14:40:33;;;;;;;1.70;0.85;;;;;;;;;;10566566;28;20510;-84
2023/03/15 14:45:38;;;;;;;2.42;0.77;;;;;;;;;;10573567;27;20709;-84
2023/03/15 14:50:47;;;;;;;4.20;0.50;;;;;;;;;;10539127;28;20047;-84
2023/03/15 14:56:00;;;;;;;0.98;0.60;;;;;;;;;;10560150;27;20047;-85
2023/03/15 15:06:28;;;;;;;0.85;0.50;;;;;;;;;;10567655;27;20062;-84
2023/03/15 15:11:36;;;;;;;1.83;0.93;;;;;;;;;;10555884;28;20035;-85
2023/03/15 15:16:42;;;;;;;3.15;0.60;;;;;;;;;;10552817;28;20519;-84
2023/03/15 15:21:53;;;;;;;2.05;0.90;;;;;;;;;;10546225;28;20455;-83
2023/03/15 15:27:05;;;;;;;1.40;0.57;;;;;;;;;;10500478;28;20477;-85
2023/03/15 15:32:19;;;;;;;0.32;0.32;;;;;;;;;;10539569;28;20040;-84
2023/03/15 15:37:31;;;;;;;1.52;0.75;;;;;;;;;;10561955;27;20388;-84
2023/03/15 15:42:36;;;;;;;1.08;0.47;;;;;;;;;;10552618;28;20040;-84
2023/03/15 15:47:41;;;;;;;0.93;0.50;;;;;;;;;;10562955;27;20048;-84
2023/03/15 15:52:49;;;;;;;3.10;0.70;;;;;;;;;;10515839;28;20036;-86
2023/03/15 15:57:58;;;;;;;3.95;1.08;;;;;;;;;;10558399;28;20040;-85
2023/03/15 16:03:04;;;;;;;2.42;1.05;;;;;;;;;;10542559;28;20616;-84
2023/03/15 16:08:07;;;;;;;1.48;0.77;;;;;;;;;;10541061;28;20051;-84
2023/03/15 16:13:15;;;;;;;2.97;0.90;;;;;;;;;;10563283;28;20047;-83
2023/03/15 16:18:21;;;;;;;3.75;1.13;;;;;;;;;;10547671;28;20054;-85
2023/03/15 16:23:30;;;;;;;6.15;1.63;;;;;;;;;;10569317;28;20496;-84
2023/03/15 16:28:41;;;;;;;2.17;0.90;;;;;;;;;;10562893;28;20382;-85
2023/03/15 16:33:46;;;;;;;2.45;0.93;;;;;;;;;;10561639;28;20032;-86
2023/03/15 16:39:01;;;;;;;3.88;1.20;;;;;;;;;;10573945;28;20036;-84
2023/03/15 16:44:22;;;;;;;5.20;1.23;;;;;;;;;;10576716;28;20070;-85
2023/03/15 16:49:26;;;;;;;4.70;1.33;;;;;;;;;;10582141;27;20027;-84
2023/03/15 16:54:31;;;;;;;6.32;2.35;;;;;;;;;;10583471;27;20076;-84
2023/03/15 16:59:48;;;;;;;2.73;1.70;;;;;;;;;;10577995;27;20039;-82
2023/03/15 17:04:52;;;;;;;3.38;0.88;;;;;;;;;;10592039;27;20078;-83
2023/03/15 17:10:00;;;;;;;3.63;1.00;;;;;;;;;;10583112;27;20153;-84
2023/03/15 17:15:08;;;;;;;3.97;1.30;;;;;;;;;;10576931;27;20115;-83
2023/03/15 17:20:25;;;;;;;6.00;1.63;;;;;;;;;;10595418;27;20042;-83
2023/03/15 17:25:38;;;;;;;5.57;1.77;;;;;;;;;;10571187;27;20555;-84
2023/03/15 17:30:44;;;;;;;4.07;1.60;;;;;;;;;;10570016;27;20036;-85
2023/03/15 17:35:55;;;;;;;4.88;1.65;;;;;;;;;;10580979;27;20051;-84
2023/03/15 17:41:01;;;;;;;3.17;1.30;;;;;;;;;;10578796;27;20054;-82
2023/03/15 17:46:11;;;;;;;5.68;1.65;;;;;;;;;;10575058;27;20048;-84
2023/03/15 17:51:17;;;;;;;5.03;1.30;;;;;;;;;;10573358;27;20036;-83
2023/03/15 17:56:22;;;;;;;5.55;1.50;;;;;;;;;;10573594;28;20134;-83
2023/03/15 18:01:30;;;;;;;6.25;1.48;;;;;;;;;;10566935;27;20410;-85
2023/03/15 18:06:39;;;;;;;4.13;1.60;;;;;;;;;;10572619;27;20036;-85
2023/03/15 18:11:45;;;;;;;;;;;;;;;;;;10599255;27;20040;-86
2023/03/15 18:16:55;;;;;;;5.95;1.85;;;;;;;;;;10617577;27;20179;-85
2023/03/15 18:22:03;;;;;;;4.20;1.58;;;;;;;;;;10620191;27;20036;-83
2023/03/15 18:27:18;;;;;;;4.28;1.42;;;;;;;;;;10608574;28;20044;-79
2023/03/15 18:32:24;;;;;;;4.38;1.60;;;;;;;;;;10623256;27;20030;-81
2023/03/15 18:37:29;;;;;;;4.20;1.52;;;;;;;;;;10621828;27;20130;-80
2023/03/15 18:42:33;;;;;;;3.35;1.50;;;;;;;;;;10594233;27;20130;-80
2023/03/15 18:47:37;;;;;;;2.87;1.70;;;;;;;;;;10548689;28;20052;-79
2023/03/15 18:52:40;;;;;;;3.88;1.52;;;;;;;;;;10582917;27;20039;-78
2023/03/15 18:57:47;;;;;;;3.13;1.70;;;;;;;;;;10565802;27;20059;-80
2023/03/15 19:02:52;;;;;;;5.72;1.75;;;;;;;;;;10575414;27;20036;-81
2023/03/15 19:07:59;;;;;;;6.15;1.77;;;;;;;;;;10577151;27;20040;-81
2023/03/15 19:13:03;;;;;;;5.13;1.88;;;;;;;;;;10579257;27;20431;-81
2023/03/15 19:18:19;;;;;;;4.35;1.50;;;;;;;;;;10586022;27;20035;-80
2023/03/15 19:23:22;;;;;;;3.15;1.70;;;;;;;;;;10590506;27;20062;-80
2023/03/15 19:28:29;;;;;;;7.57;2.30;;;;;;;;;;10577266;27;20039;-79
2023/03/15 19:33:34;;;;;;;4.03;2.00;;;;;;;;;;10564318;28;20130;-79
2023/03/15 19:38:37;;;;;;;5.95;1.75;;;;;;;;;;10561902;28;20123;-80
2023/03/15 19:43:42;;;;;;;5.50;1.83;;;;;;;;;;10570565;27;20124;-80
2023/03/15 19:48:46;;;;;;;1.40;0.60;;;;;;;;;;10570815;27;20512;-80
2023/03/15 19:53:50;;;;;;;2.38;1.13;;;;;;;;;;10582186;27;20062;-79
2023/03/15 19:58:54;;;;;;;6.03;1.98;;;;;;;;;;10561462;27;20044;-80
2023/03/15 20:04:03;;;;;;;4.30;1.90;;;;;;;;;;10565163;27;20545;-80
2023/03/15 20:09:09;;;;;;;4.38;1.90;;;;;;;;;;10571891;27;20701;-81
2023/03/15 20:14:13;;;;;;;5.07;2.00;;;;;;;;;;10559644;28;20081;-80
2023/03/15 20:19:18;;;;;;;4.07;1.98;;;;;;;;;;10578175;28;20048;-81
2023/03/15 20:24:23;;;;;;;2.58;1.40;;;;;;;;;;10568129;28;20043;-83
2023/03/15 20:29:30;;;;;;;4.82;1.70;;;;;;;;;;10569868;27;20059;-82
2023/03/15 20:34:34;;;;;;;5.32;1.90;;;;;;;;;;10555520;27;20067;-79
2023/03/15 20:39:39;;;;;;;0.63;0.57;;;;;;;;;;10573859;27;20108;-77
2023/03/15 20:44:42;;;;;;;2.35;1.58;;;;;;;;;;10573444;27;20070;-79
2023/03/15 20:49:46;;;;;;;3.03;1.70;;;;;;;;;;10564269;28;20052;-79
2023/03/15 20:54:50;;;;;;;4.18;1.65;;;;;;;;;;10553918;28;20405;-79
2023/03/15 20:59:53;;;;;;;1.60;0.95;;;;;;;;;;10561654;28;20043;-81
2023/03/15 21:04:58;;;;;;;2.28;1.48;;;;;;;;;;10561862;28;20043;-82
2023/03/15 21:10:04;;;;;;;2.40;1.27;;;;;;;;;;10564955;28;20036;-81
2023/03/15 21:15:14;;;;;;;4.88;2.17;;;;;;;;;;10565588;27;20035;-81
2023/03/15 21:20:20;;;;;;;3.58;1.80;;;;;;;;;;10566324;28;20031;-82
2023/03/15 21:25:24;;;;;;;4.43;2.15;;;;;;;;;;10563777;28;20139;-82
2023/03/15 21:30:27;;;;;;;5.60;2.30;;;;;;;;;;10558886;28;20032;-81
2023/03/15 21:35:32;;;;;;;3.13;1.58;;;;;;;;;;10557038;28;20490;-80
2023/03/15 21:40:35;;;;;;;4.55;2.10;;;;;;;;;;10555774;27;20387;-81
2023/03/15 21:45:43;;;;;;;6.80;2.45;;;;;;;;;;10556143;28;20036;-79
2023/03/15 21:50:52;;;;;;;6.05;2.30;;;;;;;;;;10554260;28;20047;-79
2023/03/15 21:55:57;;;;;;;5.30;2.60;;;;;;;;;;10560103;28;20385;-79
2023/03/15 22:01:03;;;;;;;5.93;2.65;;;;;;;;;;10563406;27;20032;-79
2023/03/15 22:06:14;;;;;;;5.15;2.47;;;;;;;;;;10553465;28;20070;-78
2023/03/15 22:11:17;;;;;;;6.10;3.13;;;;;;;;;;10556313;28;20472;-80
2023/03/15 22:16:21;;;;;;;6.95;2.97;;;;;;;;;;10560275;28;20104;-78
2023/03/15 22:21:27;;;;;;;6.77;2.97;;;;;;;;;;10558075;27;20036;-77
2023/03/15 22:26:30;;;;;;;9.90;4.80;;;;;;;;;;10555728;28;20306;-78
2023/03/15 22:31:36;;;;;;;8.75;3.08;;;;;;;;;;10561048;28;20040;-79
2023/03/15 22:36:43;;;;;;;10.07;4.37;;;;;;;;;;10557904;27;20742;-79
2023/03/15 22:41:46;;;;;;;29.17;10.90;;;;;;;;;;10549249;28;20059;-80
2023/03/15 22:46:50;;;;;;;4.20;2.37;;;;;;;;;;10560416;27;20588;-80
2023/03/15 22:52:06;;;;;;;5.07;2.20;;;;;;;;;;10517612;28;20040;-80
2023/03/15 22:57:10;;;;;;;5.37;2.63;;;;;;;;;;10565685;27;20055;-80
2023/03/15 23:02:15;;;;;;;7.60;3.40;;;;;;;;;;10551403;28;20074;-81
2023/03/15 23:07:19;;;;;;;8.77;3.43;;;;;;;;;;10550805;28;20401;-79
2023/03/15 23:12:22;;;;;;;7.67;3.60;;;;;;;;;;10564633;27;20341;-79
2023/03/15 23:17:37;;;;;;;10.10;4.05;;;;;;;;;;10550321;28;20043;-81
2023/03/15 23:22:42;;;;;;;9.88;3.95;;;;;;;;;;10569986;27;20047;-79
2023/03/15 23:27:45;;;;;;;10.77;3.60;;;;;;;;;;10562623;28;20055;-79
2023/03/15 23:32:56;;;;;;;9.30;4.35;;;;;;;;;;10571451;27;20065;-80
2023/03/15 23:38:02;;;;;;;7.27;4.07;;;;;;;;;;10568119;27;20035;-80
2023/03/15 23:43:08;;;;;;;7.57;3.93;;;;;;;;;;10542191;28;20334;-79
2023/03/15 23:48:11;;;;;;;8.53;3.77;;;;;;;;;;10539253;27;20119;-79
2023/03/15 23:53:16;;;;;;;10.93;3.95;;;;;;;;;;10544771;28;20050;-79
2023/03/15 23:58:20;;;;;;;7.85;3.60;;;;;;;;;;10562382;28;20159;-80
